sensor_id;sensor_type;location;lat;lon;timestamp;P1;durP1;ratioP1;P2;durP2;ratioP2
71558;SDS011;59382;43.852;25.952;2023-02-25T00:00:41;15.40;;;10.45;;
71558;SDS011;59382;43.852;25.952;2023-02-25T00:03:08;15.00;;;9.93;;
71558;SDS011;59382;43.852;25.952;2023-02-25T00:05:38;19.15;;;10.55;;
71558;SDS011;59382;43.852;25.952;2023-02-25T00:08:04;17.25;;;11.43;;
71558;SDS011;59382;43.852;25.952;2023-02-25T00:10:31;16.05;;;10.70;;
71558;SDS011;59382;43.852;25.952;2023-02-25T00:12:57;17.15;;;11.55;;
71558;SDS011;59382;43.852;25.952;2023-02-25T00:15:24;23.45;;;13.20;;
71558;SDS011;59382;43.852;25.952;2023-02-25T00:17:50;25.00;;;13.10;;
71558;SDS011;59382;43.852;25.952;2023-02-25T00:20:16;22.63;;;12.45;;
71558;SDS011;59382;43.852;25.952;2023-02-25T00:22:44;20.80;;;12.25;;
71558;SDS011;59382;43.852;25.952;2023-02-25T00:25:10;21.60;;;11.35;;
71558;SDS011;59382;43.852;25.952;2023-02-25T00:27:37;18.52;;;11.30;;
71558;SDS011;59382;43.852;25.952;2023-02-25T00:30:03;21.25;;;12.88;;
71558;SDS011;59382;43.852;25.952;2023-02-25T00:32:29;26.20;;;13.73;;
71558;SDS011;59382;43.852;25.952;2023-02-25T00:34:55;19.45;;;12.23;;
71558;SDS011;59382;43.852;25.952;2023-02-25T00:37:21;18.35;;;11.98;;
71558;SDS011;59382;43.852;25.952;2023-02-25T00:39:47;17.38;;;10.73;;
71558;SDS011;59382;43.852;25.952;2023-02-25T00:42:13;16.52;;;10.57;;
71558;SDS011;59382;43.852;25.952;2023-02-25T00:44:43;15.23;;;10.52;;
71558;SDS011;59382;43.852;25.952;2023-02-25T00:47:10;16.95;;;11.00;;
71558;SDS011;59382;43.852;25.952;2023-02-25T00:49:36;15.95;;;10.85;;
71558;SDS011;59382;43.852;25.952;2023-02-25T00:52:04;17.55;;;11.32;;
71558;SDS011;59382;43.852;25.952;2023-02-25T00:54:31;20.85;;;11.40;;
71558;SDS011;59382;43.852;25.952;2023-02-25T00:56:58;21.17;;;11.60;;
71558;SDS011;59382;43.852;25.952;2023-02-25T00:59:27;22.40;;;12.57;;
71558;SDS011;59382;43.852;25.952;2023-02-25T01:01:53;19.58;;;12.65;;
71558;SDS011;59382;43.852;25.952;2023-02-25T01:04:18;29.70;;;14.85;;
71558;SDS011;59382;43.852;25.952;2023-02-25T01:06:44;26.92;;;13.68;;
71558;SDS011;59382;43.852;25.952;2023-02-25T01:09:09;24.95;;;13.30;;
71558;SDS011;59382;43.852;25.952;2023-02-25T01:11:39;23.60;;;13.43;;
71558;SDS011;59382;43.852;25.952;2023-02-25T01:14:07;26.23;;;14.40;;
71558;SDS011;59382;43.852;25.952;2023-02-25T01:16:35;26.48;;;14.45;;
71558;SDS011;59382;43.852;25.952;2023-02-25T01:19:03;21.25;;;12.57;;
71558;SDS011;59382;43.852;25.952;2023-02-25T01:21:40;15.52;;;10.38;;
71558;SDS011;59382;43.852;25.952;2023-02-25T01:24:18;17.83;;;9.05;;
71558;SDS011;59382;43.852;25.952;2023-02-25T01:26:46;13.05;;;8.50;;
71558;SDS011;59382;43.852;25.952;2023-02-25T01:29:13;14.18;;;9.30;;
71558;SDS011;59382;43.852;25.952;2023-02-25T01:31:54;15.25;;;8.90;;
71558;SDS011;59382;43.852;25.952;2023-02-25T01:34:21;12.10;;;8.52;;
71558;SDS011;59382;43.852;25.952;2023-02-25T01:36:46;10.88;;;8.20;;
71558;SDS011;59382;43.852;25.952;2023-02-25T01:39:13;12.80;;;7.80;;
71558;SDS011;59382;43.852;25.952;2023-02-25T01:41:39;11.90;;;8.02;;
71558;SDS011;59382;43.852;25.952;2023-02-25T01:44:27;14.10;;;8.15;;
71558;SDS011;59382;43.852;25.952;2023-02-25T01:47:02;10.77;;;7.60;;
71558;SDS011;59382;43.852;25.952;2023-02-25T01:49:31;13.55;;;8.52;;
71558;SDS011;59382;43.852;25.952;2023-02-25T01:52:07;21.48;;;8.57;;
71558;SDS011;59382;43.852;25.952;2023-02-25T01:54:36;11.10;;;8.05;;
71558;SDS011;59382;43.852;25.952;2023-02-25T01:57:05;9.68;;;7.13;;
71558;SDS011;59382;43.852;25.952;2023-02-25T01:59:33;11.75;;;7.55;;
71558;SDS011;59382;43.852;25.952;2023-02-25T02:02:00;11.93;;;7.90;;
71558;SDS011;59382;43.852;25.952;2023-02-25T02:04:25;10.63;;;7.93;;
71558;SDS011;59382;43.852;25.952;2023-02-25T02:06:51;11.18;;;7.05;;
71558;SDS011;59382;43.852;25.952;2023-02-25T02:09:20;9.27;;;6.60;;
71558;SDS011;59382;43.852;25.952;2023-02-25T02:11:48;12.60;;;7.63;;
71558;SDS011;59382;43.852;25.952;2023-02-25T02:14:15;12.77;;;7.45;;
71558;SDS011;59382;43.852;25.952;2023-02-25T02:22:25;14.52;;;7.13;;
71558;SDS011;59382;43.852;25.952;2023-02-25T02:30:32;9.95;;;7.70;;
71558;SDS011;59382;43.852;25.952;2023-02-25T02:33:20;12.25;;;8.15;;
71558;SDS011;59382;43.852;25.952;2023-02-25T02:36:06;10.05;;;7.68;;
71558;SDS011;59382;43.852;25.952;2023-02-25T02:38:46;13.90;;;7.20;;
71558;SDS011;59382;43.852;25.952;2023-02-25T02:43:49;10.20;;;6.47;;
71558;SDS011;59382;43.852;25.952;2023-02-25T02:46:23;10.47;;;6.87;;
71558;SDS011;59382;43.852;25.952;2023-02-25T02:48:58;9.55;;;6.88;;
71558;SDS011;59382;43.852;25.952;2023-02-25T02:51:34;10.65;;;7.30;;
71558;SDS011;59382;43.852;25.952;2023-02-25T02:54:05;13.30;;;7.65;;
71558;SDS011;59382;43.852;25.952;2023-02-25T02:56:34;10.13;;;6.50;;
71558;SDS011;59382;43.852;25.952;2023-02-25T02:59:13;11.68;;;7.38;;
71558;SDS011;59382;43.852;25.952;2023-02-25T03:02:08;9.68;;;6.57;;
71558;SDS011;59382;43.852;25.952;2023-02-25T03:04:46;10.90;;;6.65;;
71558;SDS011;59382;43.852;25.952;2023-02-25T03:07:14;11.10;;;7.45;;
71558;SDS011;59382;43.852;25.952;2023-02-25T03:09:42;13.40;;;8.60;;
71558;SDS011;59382;43.852;25.952;2023-02-25T03:12:14;13.77;;;8.45;;
71558;SDS011;59382;43.852;25.952;2023-02-25T03:14:40;11.52;;;7.75;;
71558;SDS011;59382;43.852;25.952;2023-02-25T03:17:10;12.52;;;8.30;;
71558;SDS011;59382;43.852;25.952;2023-02-25T03:22:34;12.93;;;8.90;;
71558;SDS011;59382;43.852;25.952;2023-02-25T03:25:12;10.63;;;7.82;;
71558;SDS011;59382;43.852;25.952;2023-02-25T03:27:42;14.15;;;8.20;;
71558;SDS011;59382;43.852;25.952;2023-02-25T03:32:46;14.60;;;8.75;;
71558;SDS011;59382;43.852;25.952;2023-02-25T03:35:18;12.60;;;8.32;;
71558;SDS011;59382;43.852;25.952;2023-02-25T03:37:45;9.60;;;7.07;;
71558;SDS011;59382;43.852;25.952;2023-02-25T03:40:14;11.15;;;7.25;;
71558;SDS011;59382;43.852;25.952;2023-02-25T03:42:53;10.05;;;7.38;;
71558;SDS011;59382;43.852;25.952;2023-02-25T03:45:33;10.75;;;7.43;;
71558;SDS011;59382;43.852;25.952;2023-02-25T03:48:01;10.90;;;7.65;;
71558;SDS011;59382;43.852;25.952;2023-02-25T03:50:30;10.57;;;6.90;;
71558;SDS011;59382;43.852;25.952;2023-02-25T03:52:59;12.60;;;7.65;;
71558;SDS011;59382;43.852;25.952;2023-02-25T03:55:25;11.65;;;7.75;;
71558;SDS011;59382;43.852;25.952;2023-02-25T03:57:53;12.30;;;8.20;;
71558;SDS011;59382;43.852;25.952;2023-02-25T04:00:24;12.93;;;8.20;;
71558;SDS011;59382;43.852;25.952;2023-02-25T04:02:52;11.07;;;7.22;;
71558;SDS011;59382;43.852;25.952;2023-02-25T04:05:18;12.18;;;8.10;;
71558;SDS011;59382;43.852;25.952;2023-02-25T04:07:45;13.90;;;7.38;;
71558;SDS011;59382;43.852;25.952;2023-02-25T04:10:12;13.15;;;8.30;;
71558;SDS011;59382;43.852;25.952;2023-02-25T04:12:41;14.30;;;8.00;;
71558;SDS011;59382;43.852;25.952;2023-02-25T04:15:06;12.07;;;7.50;;
71558;SDS011;59382;43.852;25.952;2023-02-25T04:17:33;8.25;;;6.32;;
71558;SDS011;59382;43.852;25.952;2023-02-25T04:20:00;10.60;;;6.80;;
71558;SDS011;59382;43.852;25.952;2023-02-25T04:22:25;8.80;;;6.65;;
71558;SDS011;59382;43.852;25.952;2023-02-25T04:24:51;9.30;;;6.55;;
71558;SDS011;59382;43.852;25.952;2023-02-25T04:27:17;8.82;;;6.43;;
71558;SDS011;59382;43.852;25.952;2023-02-25T04:29:42;8.85;;;6.47;;
71558;SDS011;59382;43.852;25.952;2023-02-25T04:32:09;8.55;;;6.28;;
71558;SDS011;59382;43.852;25.952;2023-02-25T04:34:35;10.13;;;6.85;;
71558;SDS011;59382;43.852;25.952;2023-02-25T04:37:01;10.50;;;6.70;;
71558;SDS011;59382;43.852;25.952;2023-02-25T04:39:29;10.18;;;7.32;;
71558;SDS011;59382;43.852;25.952;2023-02-25T04:41:55;11.93;;;7.95;;
71558;SDS011;59382;43.852;25.952;2023-02-25T04:44:21;11.88;;;8.52;;
71558;SDS011;59382;43.852;25.952;2023-02-25T04:46:46;12.68;;;7.78;;
71558;SDS011;59382;43.852;25.952;2023-02-25T04:49:19;11.77;;;7.65;;
71558;SDS011;59382;43.852;25.952;2023-02-25T04:51:47;9.75;;;7.47;;
71558;SDS011;59382;43.852;25.952;2023-02-25T04:54:15;12.18;;;8.15;;
71558;SDS011;59382;43.852;25.952;2023-02-25T04:56:42;14.35;;;8.25;;
71558;SDS011;59382;43.852;25.952;2023-02-25T04:59:09;11.02;;;7.35;;
71558;SDS011;59382;43.852;25.952;2023-02-25T05:01:36;13.20;;;7.93;;
71558;SDS011;59382;43.852;25.952;2023-02-25T05:04:02;10.75;;;7.32;;
71558;SDS011;59382;43.852;25.952;2023-02-25T05:06:28;10.98;;;6.82;;
71558;SDS011;59382;43.852;25.952;2023-02-25T05:08:54;11.93;;;7.47;;
71558;SDS011;59382;43.852;25.952;2023-02-25T05:11:24;7.40;;;6.43;;
71558;SDS011;59382;43.852;25.952;2023-02-25T05:13:53;9.80;;;7.05;;
71558;SDS011;59382;43.852;25.952;2023-02-25T05:16:22;9.43;;;6.13;;
71558;SDS011;59382;43.852;25.952;2023-02-25T05:18:48;9.90;;;6.53;;
71558;SDS011;59382;43.852;25.952;2023-02-25T05:21:15;8.73;;;6.55;;
71558;SDS011;59382;43.852;25.952;2023-02-25T05:23:43;11.77;;;7.60;;
71558;SDS011;59382;43.852;25.952;2023-02-25T05:26:10;10.05;;;6.80;;
71558;SDS011;59382;43.852;25.952;2023-02-25T05:28:36;9.30;;;6.78;;
71558;SDS011;59382;43.852;25.952;2023-02-25T05:31:03;8.98;;;6.90;;
71558;SDS011;59382;43.852;25.952;2023-02-25T05:33:34;8.98;;;6.53;;
71558;SDS011;59382;43.852;25.952;2023-02-25T05:36:01;7.55;;;5.75;;
71558;SDS011;59382;43.852;25.952;2023-02-25T05:38:29;12.52;;;7.15;;
71558;SDS011;59382;43.852;25.952;2023-02-25T05:40:57;11.18;;;6.82;;
71558;SDS011;59382;43.852;25.952;2023-02-25T05:43:24;10.05;;;6.10;;
71558;SDS011;59382;43.852;25.952;2023-02-25T05:45:55;8.82;;;6.72;;
71558;SDS011;59382;43.852;25.952;2023-02-25T05:48:22;7.85;;;6.03;;
71558;SDS011;59382;43.852;25.952;2023-02-25T05:50:48;8.07;;;6.55;;
71558;SDS011;59382;43.852;25.952;2023-02-25T05:53:18;8.50;;;7.10;;
71558;SDS011;59382;43.852;25.952;2023-02-25T05:55:44;9.82;;;6.63;;
71558;SDS011;59382;43.852;25.952;2023-02-25T05:58:10;8.93;;;6.43;;
71558;SDS011;59382;43.852;25.952;2023-02-25T06:00:37;9.23;;;7.03;;
71558;SDS011;59382;43.852;25.952;2023-02-25T06:03:03;10.57;;;7.15;;
71558;SDS011;59382;43.852;25.952;2023-02-25T06:05:29;9.32;;;6.40;;
71558;SDS011;59382;43.852;25.952;2023-02-25T06:07:55;9.20;;;6.70;;
71558;SDS011;59382;43.852;25.952;2023-02-25T06:10:22;9.70;;;7.22;;
71558;SDS011;59382;43.852;25.952;2023-02-25T06:12:48;11.20;;;6.60;;
71558;SDS011;59382;43.852;25.952;2023-02-25T06:15:14;11.73;;;7.80;;
71558;SDS011;59382;43.852;25.952;2023-02-25T06:17:39;11.95;;;6.90;;
71558;SDS011;59382;43.852;25.952;2023-02-25T06:20:05;11.45;;;7.55;;
71558;SDS011;59382;43.852;25.952;2023-02-25T06:22:31;9.70;;;7.75;;
71558;SDS011;59382;43.852;25.952;2023-02-25T06:24:57;10.60;;;7.40;;
71558;SDS011;59382;43.852;25.952;2023-02-25T06:27:23;10.25;;;7.55;;
71558;SDS011;59382;43.852;25.952;2023-02-25T06:29:48;9.65;;;7.07;;
71558;SDS011;59382;43.852;25.952;2023-02-25T06:32:14;8.25;;;6.60;;
71558;SDS011;59382;43.852;25.952;2023-02-25T06:34:40;8.55;;;6.78;;
71558;SDS011;59382;43.852;25.952;2023-02-25T06:37:06;10.05;;;7.05;;
71558;SDS011;59382;43.852;25.952;2023-02-25T06:39:31;16.90;;;7.95;;
71558;SDS011;59382;43.852;25.952;2023-02-25T06:41:57;14.70;;;8.40;;
71558;SDS011;59382;43.852;25.952;2023-02-25T06:44:23;14.02;;;9.18;;
71558;SDS011;59382;43.852;25.952;2023-02-25T06:46:51;10.63;;;8.43;;
71558;SDS011;59382;43.852;25.952;2023-02-25T06:49:21;11.10;;;6.88;;
71558;SDS011;59382;43.852;25.952;2023-02-25T06:51:47;10.70;;;8.02;;
71558;SDS011;59382;43.852;25.952;2023-02-25T06:54:14;11.88;;;7.50;;
71558;SDS011;59382;43.852;25.952;2023-02-25T06:56:41;8.63;;;6.80;;
71558;SDS011;59382;43.852;25.952;2023-02-25T06:59:06;8.77;;;7.15;;
71558;SDS011;59382;43.852;25.952;2023-02-25T07:01:32;10.05;;;7.72;;
71558;SDS011;59382;43.852;25.952;2023-02-25T07:03:57;13.88;;;8.50;;
71558;SDS011;59382;43.852;25.952;2023-02-25T07:06:23;11.93;;;8.43;;
71558;SDS011;59382;43.852;25.952;2023-02-25T07:08:49;22.67;;;10.13;;
71558;SDS011;59382;43.852;25.952;2023-02-25T07:13:43;14.57;;;9.38;;
71558;SDS011;59382;43.852;25.952;2023-02-25T07:16:12;24.17;;;18.15;;
71558;SDS011;59382;43.852;25.952;2023-02-25T07:18:38;15.65;;;11.18;;
71558;SDS011;59382;43.852;25.952;2023-02-25T07:21:05;16.98;;;11.18;;
71558;SDS011;59382;43.852;25.952;2023-02-25T07:23:31;18.05;;;10.65;;
71558;SDS011;59382;43.852;25.952;2023-02-25T07:25:56;13.55;;;9.50;;
71558;SDS011;59382;43.852;25.952;2023-02-25T07:28:22;17.00;;;10.63;;
71558;SDS011;59382;43.852;25.952;2023-02-25T07:30:47;13.00;;;9.30;;
71558;SDS011;59382;43.852;25.952;2023-02-25T07:33:13;17.25;;;11.20;;
71558;SDS011;59382;43.852;25.952;2023-02-25T07:35:38;14.15;;;10.05;;
71558;SDS011;59382;43.852;25.952;2023-02-25T07:38:04;13.10;;;9.80;;
71558;SDS011;59382;43.852;25.952;2023-02-25T07:40:29;19.45;;;10.82;;
71558;SDS011;59382;43.852;25.952;2023-02-25T07:42:55;16.33;;;9.43;;
71558;SDS011;59382;43.852;25.952;2023-02-25T07:45:20;17.20;;;10.82;;
71558;SDS011;59382;43.852;25.952;2023-02-25T07:47:47;16.95;;;10.88;;
71558;SDS011;59382;43.852;25.952;2023-02-25T07:50:12;17.70;;;11.68;;
71558;SDS011;59382;43.852;25.952;2023-02-25T07:52:38;16.55;;;11.93;;
71558;SDS011;59382;43.852;25.952;2023-02-25T07:55:04;22.67;;;13.13;;
71558;SDS011;59382;43.852;25.952;2023-02-25T07:57:31;21.50;;;14.30;;
71558;SDS011;59382;43.852;25.952;2023-02-25T07:59:56;23.67;;;15.00;;
71558;SDS011;59382;43.852;25.952;2023-02-25T08:02:25;26.55;;;13.15;;
71558;SDS011;59382;43.852;25.952;2023-02-25T08:04:51;23.13;;;14.18;;
71558;SDS011;59382;43.852;25.952;2023-02-25T08:07:16;23.95;;;14.43;;
71558;SDS011;59382;43.852;25.952;2023-02-25T08:09:42;31.73;;;15.18;;
71558;SDS011;59382;43.852;25.952;2023-02-25T08:12:08;20.33;;;12.68;;
71558;SDS011;59382;43.852;25.952;2023-02-25T08:14:34;25.08;;;13.52;;
71558;SDS011;59382;43.852;25.952;2023-02-25T08:17:01;24.50;;;13.52;;
71558;SDS011;59382;43.852;25.952;2023-02-25T08:19:27;19.65;;;11.93;;
71558;SDS011;59382;43.852;25.952;2023-02-25T08:21:53;22.65;;;12.05;;
71558;SDS011;59382;43.852;25.952;2023-02-25T08:24:20;20.08;;;11.35;;
71558;SDS011;59382;43.852;25.952;2023-02-25T08:26:47;22.00;;;10.82;;
71558;SDS011;59382;43.852;25.952;2023-02-25T08:29:13;14.75;;;10.77;;
71558;SDS011;59382;43.852;25.952;2023-02-25T08:31:39;31.42;;;11.90;;
71558;SDS011;59382;43.852;25.952;2023-02-25T08:34:05;22.92;;;11.82;;
71558;SDS011;59382;43.852;25.952;2023-02-25T08:36:31;19.73;;;10.35;;
71558;SDS011;59382;43.852;25.952;2023-02-25T08:38:57;28.55;;;11.73;;
71558;SDS011;59382;43.852;25.952;2023-02-25T08:41:24;17.27;;;10.68;;
71558;SDS011;59382;43.852;25.952;2023-02-25T08:43:52;19.00;;;10.55;;
71558;SDS011;59382;43.852;25.952;2023-02-25T08:46:19;19.83;;;12.20;;
71558;SDS011;59382;43.852;25.952;2023-02-25T08:48:49;21.63;;;12.90;;
71558;SDS011;59382;43.852;25.952;2023-02-25T08:51:16;20.92;;;12.80;;
71558;SDS011;59382;43.852;25.952;2023-02-25T08:53:42;17.27;;;11.90;;
71558;SDS011;59382;43.852;25.952;2023-02-25T08:56:09;22.60;;;12.55;;
71558;SDS011;59382;43.852;25.952;2023-02-25T08:58:37;21.00;;;12.13;;
71558;SDS011;59382;43.852;25.952;2023-02-25T09:01:07;18.30;;;11.27;;
71558;SDS011;59382;43.852;25.952;2023-02-25T09:03:37;13.07;;;9.65;;
71558;SDS011;59382;43.852;25.952;2023-02-25T09:06:15;15.93;;;9.60;;
71558;SDS011;59382;43.852;25.952;2023-02-25T09:08:41;15.50;;;8.82;;
71558;SDS011;59382;43.852;25.952;2023-02-25T09:11:07;16.33;;;8.82;;
71558;SDS011;59382;43.852;25.952;2023-02-25T09:13:32;12.13;;;8.70;;
71558;SDS011;59382;43.852;25.952;2023-02-25T09:15:58;15.48;;;9.07;;
71558;SDS011;59382;43.852;25.952;2023-02-25T09:18:24;18.85;;;9.82;;
71558;SDS011;59382;43.852;25.952;2023-02-25T09:20:50;13.45;;;9.02;;
71558;SDS011;59382;43.852;25.952;2023-02-25T09:23:16;15.43;;;9.13;;
71558;SDS011;59382;43.852;25.952;2023-02-25T09:25:42;49.28;;;10.00;;
71558;SDS011;59382;43.852;25.952;2023-02-25T09:28:10;19.15;;;9.32;;
71558;SDS011;59382;43.852;25.952;2023-02-25T09:30:36;21.35;;;9.85;;
71558;SDS011;59382;43.852;25.952;2023-02-25T09:33:02;22.10;;;9.85;;
71558;SDS011;59382;43.852;25.952;2023-02-25T09:35:28;32.40;;;11.60;;
71558;SDS011;59382;43.852;25.952;2023-02-25T09:37:53;32.92;;;11.68;;
71558;SDS011;59382;43.852;25.952;2023-02-25T09:40:19;27.38;;;10.25;;
71558;SDS011;59382;43.852;25.952;2023-02-25T09:45:16;17.02;;;9.50;;
71558;SDS011;59382;43.852;25.952;2023-02-25T09:47:46;18.60;;;8.18;;
71558;SDS011;59382;43.852;25.952;2023-02-25T09:50:22;20.13;;;9.20;;
71558;SDS011;59382;43.852;25.952;2023-02-25T09:52:57;22.88;;;9.32;;
71558;SDS011;59382;43.852;25.952;2023-02-25T09:55:35;21.15;;;9.52;;
71558;SDS011;59382;43.852;25.952;2023-02-25T10:00:44;16.35;;;9.98;;
71558;SDS011;59382;43.852;25.952;2023-02-25T10:03:23;23.95;;;9.77;;
71558;SDS011;59382;43.852;25.952;2023-02-25T10:09:11;21.63;;;11.55;;
71558;SDS011;59382;43.852;25.952;2023-02-25T10:12:06;16.92;;;11.10;;
71558;SDS011;59382;43.852;25.952;2023-02-25T10:20:38;20.77;;;11.05;;
71558;SDS011;59382;43.852;25.952;2023-02-25T10:23:44;19.33;;;12.48;;
71558;SDS011;59382;43.852;25.952;2023-02-25T10:26:36;23.48;;;12.10;;
71558;SDS011;59382;43.852;25.952;2023-02-25T10:29:13;21.70;;;11.88;;
71558;SDS011;59382;43.852;25.952;2023-02-25T10:32:00;31.58;;;12.88;;
71558;SDS011;59382;43.852;25.952;2023-02-25T10:35:04;20.92;;;12.13;;
71558;SDS011;59382;43.852;25.952;2023-02-25T10:37:38;23.48;;;11.60;;
71558;SDS011;59382;43.852;25.952;2023-02-25T10:40:07;23.15;;;12.73;;
71558;SDS011;59382;43.852;25.952;2023-02-25T10:42:38;20.42;;;11.43;;
71558;SDS011;59382;43.852;25.952;2023-02-25T10:45:12;24.23;;;12.15;;
71558;SDS011;59382;43.852;25.952;2023-02-25T10:47:45;26.58;;;12.85;;
71558;SDS011;59382;43.852;25.952;2023-02-25T10:52:54;23.35;;;12.63;;
71558;SDS011;59382;43.852;25.952;2023-02-25T10:57:54;22.42;;;12.68;;
71558;SDS011;59382;43.852;25.952;2023-02-25T11:00:23;20.83;;;12.32;;
71558;SDS011;59382;43.852;25.952;2023-02-25T11:02:53;23.40;;;12.30;;
71558;SDS011;59382;43.852;25.952;2023-02-25T11:05:39;22.83;;;12.63;;
71558;SDS011;59382;43.852;25.952;2023-02-25T11:08:26;19.63;;;11.32;;
71558;SDS011;59382;43.852;25.952;2023-02-25T11:13:33;20.95;;;11.98;;
71558;SDS011;59382;43.852;25.952;2023-02-25T11:16:01;28.20;;;13.43;;
71558;SDS011;59382;43.852;25.952;2023-02-25T11:18:36;27.30;;;13.23;;
71558;SDS011;59382;43.852;25.952;2023-02-25T11:21:12;25.27;;;14.50;;
71558;SDS011;59382;43.852;25.952;2023-02-25T11:26:08;28.73;;;14.82;;
71558;SDS011;59382;43.852;25.952;2023-02-25T11:28:43;27.27;;;14.27;;
71558;SDS011;59382;43.852;25.952;2023-02-25T11:33:51;19.83;;;11.20;;
71558;SDS011;59382;43.852;25.952;2023-02-25T11:36:28;23.42;;;10.88;;
71558;SDS011;59382;43.852;25.952;2023-02-25T11:41:43;17.83;;;10.02;;
71558;SDS011;59382;43.852;25.952;2023-02-25T11:52:20;19.35;;;8.27;;
71558;SDS011;59382;43.852;25.952;2023-02-25T11:55:03;18.20;;;8.98;;
71558;SDS011;59382;43.852;25.952;2023-02-25T12:11:27;18.60;;;8.63;;
71558;SDS011;59382;43.852;25.952;2023-02-25T12:30:55;14.52;;;8.98;;
71558;SDS011;59382;43.852;25.952;2023-02-25T13:12:00;22.35;;;10.10;;
71558;SDS011;59382;43.852;25.952;2023-02-25T13:26:19;19.73;;;9.05;;
71558;SDS011;59382;43.852;25.952;2023-02-25T13:28:59;19.33;;;9.93;;
71558;SDS011;59382;43.852;25.952;2023-02-25T13:34:28;20.67;;;9.32;;
71558;SDS011;59382;43.852;25.952;2023-02-25T13:59:30;26.00;;;11.65;;
71558;SDS011;59382;43.852;25.952;2023-02-25T14:08:09;19.70;;;10.90;;
71558;SDS011;59382;43.852;25.952;2023-02-25T14:10:49;20.05;;;10.43;;
71558;SDS011;59382;43.852;25.952;2023-02-25T14:16:14;20.85;;;10.10;;
71558;SDS011;59382;43.852;25.952;2023-02-25T14:47:34;28.50;;;11.75;;
71558;SDS011;59382;43.852;25.952;2023-02-25T14:50:36;21.48;;;12.10;;
71558;SDS011;59382;43.852;25.952;2023-02-25T14:53:14;35.00;;;11.90;;
71558;SDS011;59382;43.852;25.952;2023-02-25T14:56:22;31.95;;;12.25;;
71558;SDS011;59382;43.852;25.952;2023-02-25T15:01:46;27.58;;;13.00;;
71558;SDS011;59382;43.852;25.952;2023-02-25T15:04:45;34.15;;;13.57;;
71558;SDS011;59382;43.852;25.952;2023-02-25T15:18:44;34.97;;;12.88;;
71558;SDS011;59382;43.852;25.952;2023-02-25T15:24:01;35.08;;;12.10;;
71558;SDS011;59382;43.852;25.952;2023-02-25T15:32:09;32.47;;;13.38;;
71558;SDS011;59382;43.852;25.952;2023-02-25T15:35:02;27.85;;;13.05;;
71558;SDS011;59382;43.852;25.952;2023-02-25T15:42:40;26.35;;;13.27;;
71558;SDS011;59382;43.852;25.952;2023-02-25T15:56:43;33.88;;;15.90;;
71558;SDS011;59382;43.852;25.952;2023-02-25T16:08:55;36.28;;;14.55;;
71558;SDS011;59382;43.852;25.952;2023-02-25T16:11:38;29.73;;;13.82;;
71558;SDS011;59382;43.852;25.952;2023-02-25T16:14:05;24.75;;;13.40;;
71558;SDS011;59382;43.852;25.952;2023-02-25T16:16:41;31.77;;;13.45;;
71558;SDS011;59382;43.852;25.952;2023-02-25T16:19:15;30.10;;;12.85;;
71558;SDS011;59382;43.852;25.952;2023-02-25T16:21:44;19.38;;;10.38;;
71558;SDS011;59382;43.852;25.952;2023-02-25T16:24:15;20.15;;;9.55;;
71558;SDS011;59382;43.852;25.952;2023-02-25T16:35:12;20.48;;;8.63;;
71558;SDS011;59382;43.852;25.952;2023-02-25T16:41:02;25.35;;;11.40;;
71558;SDS011;59382;43.852;25.952;2023-02-25T16:43:29;26.42;;;12.48;;
71558;SDS011;59382;43.852;25.952;2023-02-25T16:46:01;26.65;;;11.75;;
71558;SDS011;59382;43.852;25.952;2023-02-25T16:48:37;28.08;;;13.00;;
71558;SDS011;59382;43.852;25.952;2023-02-25T16:51:22;33.83;;;13.77;;
71558;SDS011;59382;43.852;25.952;2023-02-25T16:53:58;34.50;;;13.70;;
71558;SDS011;59382;43.852;25.952;2023-02-25T16:56:31;32.75;;;12.90;;
71558;SDS011;59382;43.852;25.952;2023-02-25T16:59:05;26.83;;;9.75;;
71558;SDS011;59382;43.852;25.952;2023-02-25T17:01:53;29.38;;;12.27;;
71558;SDS011;59382;43.852;25.952;2023-02-25T17:09:53;38.88;;;12.55;;
71558;SDS011;59382;43.852;25.952;2023-02-25T17:15:27;30.08;;;13.77;;
71558;SDS011;59382;43.852;25.952;2023-02-25T17:18:09;24.67;;;10.85;;
71558;SDS011;59382;43.852;25.952;2023-02-25T17:20:44;26.88;;;10.00;;
71558;SDS011;59382;43.852;25.952;2023-02-25T17:23:11;32.42;;;9.75;;
71558;SDS011;59382;43.852;25.952;2023-02-25T17:25:43;24.45;;;8.70;;
71558;SDS011;59382;43.852;25.952;2023-02-25T17:28:20;22.27;;;9.13;;
71558;SDS011;59382;43.852;25.952;2023-02-25T17:31:08;22.77;;;8.90;;
71558;SDS011;59382;43.852;25.952;2023-02-25T17:33:49;25.08;;;9.68;;
71558;SDS011;59382;43.852;25.952;2023-02-25T17:36:24;20.70;;;8.10;;
71558;SDS011;59382;43.852;25.952;2023-02-25T17:39:18;31.77;;;9.32;;
71558;SDS011;59382;43.852;25.952;2023-02-25T17:41:43;29.10;;;9.23;;
71558;SDS011;59382;43.852;25.952;2023-02-25T17:44:10;23.52;;;9.52;;
71558;SDS011;59382;43.852;25.952;2023-02-25T17:49:26;26.02;;;8.75;;
71558;SDS011;59382;43.852;25.952;2023-02-25T17:52:00;18.38;;;8.70;;
71558;SDS011;59382;43.852;25.952;2023-02-25T17:54:57;26.55;;;8.27;;
71558;SDS011;59382;43.852;25.952;2023-02-25T17:57:27;25.45;;;9.18;;
71558;SDS011;59382;43.852;25.952;2023-02-25T17:59:59;53.92;;;26.70;;
71558;SDS011;59382;43.852;25.952;2023-02-25T18:02:43;23.33;;;9.70;;
71558;SDS011;59382;43.852;25.952;2023-02-25T18:10:04;24.08;;;8.05;;
71558;SDS011;59382;43.852;25.952;2023-02-25T18:12:50;31.60;;;9.90;;
71558;SDS011;59382;43.852;25.952;2023-02-25T18:15:20;27.50;;;9.73;;
71558;SDS011;59382;43.852;25.952;2023-02-25T18:17:49;21.75;;;9.50;;
71558;SDS011;59382;43.852;25.952;2023-02-25T18:20:33;18.38;;;9.77;;
71558;SDS011;59382;43.852;25.952;2023-02-25T18:23:05;24.20;;;10.18;;
71558;SDS011;59382;43.852;25.952;2023-02-25T18:25:43;25.90;;;10.10;;
71558;SDS011;59382;43.852;25.952;2023-02-25T18:28:12;26.33;;;10.50;;
71558;SDS011;59382;43.852;25.952;2023-02-25T18:30:39;26.65;;;10.20;;
71558;SDS011;59382;43.852;25.952;2023-02-25T18:33:05;22.42;;;9.13;;
71558;SDS011;59382;43.852;25.952;2023-02-25T18:35:32;18.15;;;8.60;;
71558;SDS011;59382;43.852;25.952;2023-02-25T18:38:03;24.80;;;11.18;;
71558;SDS011;59382;43.852;25.952;2023-02-25T18:40:32;23.77;;;9.15;;
71558;SDS011;59382;43.852;25.952;2023-02-25T18:43:00;19.55;;;9.20;;
71558;SDS011;59382;43.852;25.952;2023-02-25T18:45:31;20.60;;;9.43;;
71558;SDS011;59382;43.852;25.952;2023-02-25T18:47:58;23.20;;;9.38;;
71558;SDS011;59382;43.852;25.952;2023-02-25T18:50:27;26.08;;;9.57;;
71558;SDS011;59382;43.852;25.952;2023-02-25T18:52:54;22.42;;;8.50;;
71558;SDS011;59382;43.852;25.952;2023-02-25T18:55:21;47.78;;;19.42;;
71558;SDS011;59382;43.852;25.952;2023-02-25T18:57:51;18.27;;;8.55;;
71558;SDS011;59382;43.852;25.952;2023-02-25T19:00:17;22.48;;;8.57;;
71558;SDS011;59382;43.852;25.952;2023-02-25T19:02:49;19.35;;;8.38;;
71558;SDS011;59382;43.852;25.952;2023-02-25T19:05:18;24.08;;;10.82;;
71558;SDS011;59382;43.852;25.952;2023-02-25T19:07:45;22.90;;;8.48;;
71558;SDS011;59382;43.852;25.952;2023-02-25T19:10:24;27.83;;;7.60;;
71558;SDS011;59382;43.852;25.952;2023-02-25T19:13:38;20.63;;;7.82;;
71558;SDS011;59382;43.852;25.952;2023-02-25T19:15:42;19.77;;;8.77;;
71558;SDS011;59382;43.852;25.952;2023-02-25T19:18:10;28.23;;;10.25;;